sensor_id;sensor_type;location;lat;lon;timestamp;temperature;humidity
40059;SHT31;25763;49.972;8.568;2023-07-02T00:02:15;17.86;75.59
40059;SHT31;25763;49.972;8.568;2023-07-02T00:04:42;17.86;75.58
40059;SHT31;25763;49.972;8.568;2023-07-02T00:07:08;17.86;75.06
40059;SHT31;25763;49.972;8.568;2023-07-02T00:09:33;17.84;75.17
40059;SHT31;25763;49.972;8.568;2023-07-02T00:11:59;17.84;74.84
40059;SHT31;25763;49.972;8.568;2023-07-02T00:14:24;17.85;74.91
40059;SHT31;25763;49.972;8.568;2023-07-02T00:16:49;17.82;75.04
40059;SHT31;25763;49.972;8.568;2023-07-02T00:19:15;17.84;75.09
40059;SHT31;25763;49.972;8.568;2023-07-02T00:21:41;17.84;75.17
40059;SHT31;25763;49.972;8.568;2023-07-02T00:24:08;17.79;75.03
40059;SHT31;25763;49.972;8.568;2023-07-02T00:26:35;17.77;75.14
40059;SHT31;25763;49.972;8.568;2023-07-02T00:29:01;17.73;75.37
40059;SHT31;25763;49.972;8.568;2023-07-02T00:31:29;17.71;75.37
40059;SHT31;25763;49.972;8.568;2023-07-02T00:33:54;17.67;75.65
40059;SHT31;25763;49.972;8.568;2023-07-02T00:36:19;17.63;75.48
40059;SHT31;25763;49.972;8.568;2023-07-02T00:38:46;17.60;75.90
40059;SHT31;25763;49.972;8.568;2023-07-02T00:41:12;17.57;75.77
40059;SHT31;25763;49.972;8.568;2023-07-02T00:43:37;17.51;75.93
40059;SHT31;25763;49.972;8.568;2023-07-02T00:46:14;17.46;76.22
40059;SHT31;25763;49.972;8.568;2023-07-02T00:48:44;17.40;76.18
40059;SHT31;25763;49.972;8.568;2023-07-02T00:51:13;17.40;76.25
40059;SHT31;25763;49.972;8.568;2023-07-02T00:53:40;17.37;76.46
40059;SHT31;25763;49.972;8.568;2023-07-02T00:56:05;17.34;76.60
40059;SHT31;25763;49.972;8.568;2023-07-02T00:58:30;17.34;76.87
40059;SHT31;25763;49.972;8.568;2023-07-02T01:00:56;17.27;76.93
40059;SHT31;25763;49.972;8.568;2023-07-02T01:03:21;17.30;77.28
40059;SHT31;25763;49.972;8.568;2023-07-02T01:05:47;17.25;77.32
40059;SHT31;25763;49.972;8.568;2023-07-02T01:08:12;17.20;76.96
40059;SHT31;25763;49.972;8.568;2023-07-02T01:10:38;17.15;77.14
40059;SHT31;25763;49.972;8.568;2023-07-02T01:13:08;17.09;77.24
40059;SHT31;25763;49.972;8.568;2023-07-02T01:15:35;17.05;77.14
40059;SHT31;25763;49.972;8.568;2023-07-02T01:18:01;16.97;77.27
40059;SHT31;25763;49.972;8.568;2023-07-02T01:20:28;16.94;77.28
40059;SHT31;25763;49.972;8.568;2023-07-02T01:22:56;16.87;77.31
40059;SHT31;25763;49.972;8.568;2023-07-02T01:25:22;16.80;77.04
40059;SHT31;25763;49.972;8.568;2023-07-02T01:27:50;16.78;77.42
40059;SHT31;25763;49.972;8.568;2023-07-02T01:30:16;16.78;77.53
40059;SHT31;25763;49.972;8.568;2023-07-02T01:32:41;16.70;77.36
40059;SHT31;25763;49.972;8.568;2023-07-02T01:35:08;16.65;77.47
40059;SHT31;25763;49.972;8.568;2023-07-02T01:37:33;16.60;77.45
40059;SHT31;25763;49.972;8.568;2023-07-02T01:40:03;16.56;77.80
40059;SHT31;25763;49.972;8.568;2023-07-02T01:42:31;16.52;77.76
40059;SHT31;25763;49.972;8.568;2023-07-02T01:44:57;16.45;77.81
40059;SHT31;25763;49.972;8.568;2023-07-02T01:47:22;16.43;77.83
40059;SHT31;25763;49.972;8.568;2023-07-02T01:49:47;16.39;78.12
40059;SHT31;25763;49.972;8.568;2023-07-02T01:52:13;16.36;78.23
40059;SHT31;25763;49.972;8.568;2023-07-02T01:54:38;16.30;78.32
40059;SHT31;25763;49.972;8.568;2023-07-02T01:57:04;16.24;78.30
40059;SHT31;25763;49.972;8.568;2023-07-02T01:59:30;16.25;78.34
40059;SHT31;25763;49.972;8.568;2023-07-02T02:01:55;16.21;78.50
40059;SHT31;25763;49.972;8.568;2023-07-02T02:04:20;16.18;78.70
40059;SHT31;25763;49.972;8.568;2023-07-02T02:06:46;16.15;78.53
40059;SHT31;25763;49.972;8.568;2023-07-02T02:09:11;16.10;78.53
40059;SHT31;25763;49.972;8.568;2023-07-02T02:11:39;16.10;78.83
40059;SHT31;25763;49.972;8.568;2023-07-02T02:14:05;16.08;78.45
40059;SHT31;25763;49.972;8.568;2023-07-02T02:16:30;16.04;78.59
40059;SHT31;25763;49.972;8.568;2023-07-02T02:18:59;16.03;78.40
40059;SHT31;25763;49.972;8.568;2023-07-02T02:21:24;16.00;78.30
40059;SHT31;25763;49.972;8.568;2023-07-02T02:23:49;15.91;78.03
40059;SHT31;25763;49.972;8.568;2023-07-02T02:26:15;15.90;78.28
40059;SHT31;25763;49.972;8.568;2023-07-02T02:28:41;15.87;78.55
40059;SHT31;25763;49.972;8.568;2023-07-02T02:31:07;15.80;78.31
40059;SHT31;25763;49.972;8.568;2023-07-02T02:33:33;15.73;78.05
40059;SHT31;25763;49.972;8.568;2023-07-02T02:36:00;15.69;78.09
40059;SHT31;25763;49.972;8.568;2023-07-02T02:38:25;15.61;78.00
40059;SHT31;25763;49.972;8.568;2023-07-02T02:40:51;15.55;78.14
40059;SHT31;25763;49.972;8.568;2023-07-02T02:43:16;15.51;78.13
40059;SHT31;25763;49.972;8.568;2023-07-02T02:45:42;15.45;78.21
40059;SHT31;25763;49.972;8.568;2023-07-02T02:48:08;15.44;78.52
40059;SHT31;25763;49.972;8.568;2023-07-02T02:50:33;15.39;78.51
40059;SHT31;25763;49.972;8.568;2023-07-02T02:52:58;15.35;78.72
40059;SHT31;25763;49.972;8.568;2023-07-02T02:55:24;15.30;78.55
40059;SHT31;25763;49.972;8.568;2023-07-02T02:57:49;15.22;78.62
40059;SHT31;25763;49.972;8.568;2023-07-02T03:00:14;15.22;78.77
40059;SHT31;25763;49.972;8.568;2023-07-02T03:02:41;15.22;78.73
40059;SHT31;25763;49.972;8.568;2023-07-02T03:05:07;15.15;78.51
40059;SHT31;25763;49.972;8.568;2023-07-02T03:07:32;15.10;78.36
40059;SHT31;25763;49.972;8.568;2023-07-02T03:09:58;15.06;78.12
40059;SHT31;25763;49.972;8.568;2023-07-02T03:12:25;15.02;77.95
40059;SHT31;25763;49.972;8.568;2023-07-02T03:14:50;14.97;77.56
40059;SHT31;25763;49.972;8.568;2023-07-02T03:17:20;14.96;77.22
40059;SHT31;25763;49.972;8.568;2023-07-02T03:19:45;15.00;77.14
40059;SHT31;25763;49.972;8.568;2023-07-02T03:22:11;15.02;76.94
40059;SHT31;25763;49.972;8.568;2023-07-02T03:24:36;14.99;77.17
40059;SHT31;25763;49.972;8.568;2023-07-02T03:27:02;15.04;77.13
40059;SHT31;25763;49.972;8.568;2023-07-02T03:29:27;15.04;76.99
40059;SHT31;25763;49.972;8.568;2023-07-02T03:31:52;15.04;76.98
40059;SHT31;25763;49.972;8.568;2023-07-02T03:34:18;15.03;76.65
40059;SHT31;25763;49.972;8.568;2023-07-02T03:36:43;15.04;76.78
40059;SHT31;25763;49.972;8.568;2023-07-02T03:39:09;15.07;76.49
40059;SHT31;25763;49.972;8.568;2023-07-02T03:41:35;15.06;76.34
40059;SHT31;25763;49.972;8.568;2023-07-02T03:44:00;15.06;75.93
40059;SHT31;25763;49.972;8.568;2023-07-02T03:46:25;15.10;75.82
40059;SHT31;25763;49.972;8.568;2023-07-02T03:48:51;15.12;75.89
40059;SHT31;25763;49.972;8.568;2023-07-02T03:51:16;15.12;75.76
40059;SHT31;25763;49.972;8.568;2023-07-02T03:53:41;15.12;75.82
40059;SHT31;25763;49.972;8.568;2023-07-02T03:56:07;15.15;75.97
40059;SHT31;25763;49.972;8.568;2023-07-02T03:58:32;15.12;75.90
40059;SHT31;25763;49.972;8.568;2023-07-02T04:00:59;15.10;75.88
40059;SHT31;25763;49.972;8.568;2023-07-02T04:03:24;15.17;76.39
40059;SHT31;25763;49.972;8.568;2023-07-02T04:05:50;15.12;76.11
40059;SHT31;25763;49.972;8.568;2023-07-02T04:08:15;15.14;76.02
40059;SHT31;25763;49.972;8.568;2023-07-02T04:10:41;15.15;76.55
40059;SHT31;25763;49.972;8.568;2023-07-02T04:13:06;15.11;76.17
40059;SHT31;25763;49.972;8.568;2023-07-02T04:15:32;15.12;76.17
40059;SHT31;25763;49.972;8.568;2023-07-02T04:17:57;15.14;76.19
40059;SHT31;25763;49.972;8.568;2023-07-02T04:20:23;15.15;75.92
40059;SHT31;25763;49.972;8.568;2023-07-02T04:22:48;15.17;76.09
40059;SHT31;25763;49.972;8.568;2023-07-02T04:25:14;15.17;76.15
40059;SHT31;25763;49.972;8.568;2023-07-02T04:27:44;15.20;76.12
40059;SHT31;25763;49.972;8.568;2023-07-02T04:30:12;15.21;76.21
40059;SHT31;25763;49.972;8.568;2023-07-02T04:32:39;15.21;75.91
40059;SHT31;25763;49.972;8.568;2023-07-02T04:35:08;15.28;76.18
40059;SHT31;25763;49.972;8.568;2023-07-02T04:37:34;15.22;75.61
40059;SHT31;25763;49.972;8.568;2023-07-02T04:39:59;15.28;76.54
40059;SHT31;25763;49.972;8.568;2023-07-02T04:42:26;15.27;76.22
40059;SHT31;25763;49.972;8.568;2023-07-02T04:44:56;15.30;76.36
40059;SHT31;25763;49.972;8.568;2023-07-02T04:47:27;15.32;76.12
40059;SHT31;25763;49.972;8.568;2023-07-02T04:49:52;15.31;76.13
40059;SHT31;25763;49.972;8.568;2023-07-02T04:52:17;15.32;76.57
40059;SHT31;25763;49.972;8.568;2023-07-02T04:54:43;15.37;76.44
40059;SHT31;25763;49.972;8.568;2023-07-02T04:57:08;15.37;76.00
40059;SHT31;25763;49.972;8.568;2023-07-02T04:59:33;15.46;76.57
40059;SHT31;25763;49.972;8.568;2023-07-02T05:01:59;15.48;76.22
40059;SHT31;25763;49.972;8.568;2023-07-02T05:04:24;15.52;76.31
40059;SHT31;25763;49.972;8.568;2023-07-02T05:06:49;15.53;75.49
40059;SHT31;25763;49.972;8.568;2023-07-02T05:09:14;15.56;76.16
40059;SHT31;25763;49.972;8.568;2023-07-02T05:11:40;15.49;75.40
40059;SHT31;25763;49.972;8.568;2023-07-02T05:14:05;15.49;75.65
40059;SHT31;25763;49.972;8.568;2023-07-02T05:16:31;15.52;76.19
40059;SHT31;25763;49.972;8.568;2023-07-02T05:18:56;15.53;75.83
40059;SHT31;25763;49.972;8.568;2023-07-02T05:21:22;15.55;75.69
40059;SHT31;25763;49.972;8.568;2023-07-02T05:23:47;15.65;76.32
40059;SHT31;25763;49.972;8.568;2023-07-02T05:26:13;15.74;75.75
40059;SHT31;25763;49.972;8.568;2023-07-02T05:28:39;15.76;75.51
40059;SHT31;25763;49.972;8.568;2023-07-02T05:31:04;15.81;76.27
40059;SHT31;25763;49.972;8.568;2023-07-02T05:33:29;15.88;77.00
40059;SHT31;25763;49.972;8.568;2023-07-02T05:35:57;15.91;76.48
40059;SHT31;25763;49.972;8.568;2023-07-02T05:38:22;15.98;76.92
40059;SHT31;25763;49.972;8.568;2023-07-02T05:40:48;16.07;77.29
40059;SHT31;25763;49.972;8.568;2023-07-02T05:43:13;16.18;78.28
40059;SHT31;25763;49.972;8.568;2023-07-02T05:45:39;16.20;77.84
40059;SHT31;25763;49.972;8.568;2023-07-02T05:48:04;16.18;76.44
40059;SHT31;25763;49.972;8.568;2023-07-02T05:50:30;16.20;75.69
40059;SHT31;25763;49.972;8.568;2023-07-02T05:52:55;16.28;76.08
40059;SHT31;25763;49.972;8.568;2023-07-02T05:55:21;16.46;77.00
40059;SHT31;25763;49.972;8.568;2023-07-02T05:57:46;16.45;75.52
40059;SHT31;25763;49.972;8.568;2023-07-02T06:00:12;16.45;74.73
40059;SHT31;25763;49.972;8.568;2023-07-02T06:02:38;16.55;74.97
40059;SHT31;25763;49.972;8.568;2023-07-02T06:05:04;16.61;75.30
40059;SHT31;25763;49.972;8.568;2023-07-02T06:07:30;16.65;75.27
40059;SHT31;25763;49.972;8.568;2023-07-02T06:09:55;16.68;74.66
40059;SHT31;25763;49.972;8.568;2023-07-02T06:12:21;16.73;74.23
40059;SHT31;25763;49.972;8.568;2023-07-02T06:14:47;16.80;74.16
40059;SHT31;25763;49.972;8.568;2023-07-02T06:17:12;16.75;73.59
40059;SHT31;25763;49.972;8.568;2023-07-02T06:19:38;16.88;74.03
40059;SHT31;25763;49.972;8.568;2023-07-02T06:22:04;16.99;75.12
40059;SHT31;25763;49.972;8.568;2023-07-02T06:24:30;16.95;73.43
40059;SHT31;25763;49.972;8.568;2023-07-02T06:26:56;16.81;73.13
40059;SHT31;25763;49.972;8.568;2023-07-02T06:29:22;16.81;72.80
40059;SHT31;25763;49.972;8.568;2023-07-02T06:31:48;17.04;72.86
40059;SHT31;25763;49.972;8.568;2023-07-02T06:34:14;17.29;72.31
40059;SHT31;25763;49.972;8.568;2023-07-02T06:36:40;17.34;71.70
40059;SHT31;25763;49.972;8.568;2023-07-02T06:39:05;17.44;71.21
40059;SHT31;25763;49.972;8.568;2023-07-02T06:41:31;17.60;72.93
40059;SHT31;25763;49.972;8.568;2023-07-02T06:43:56;17.50;70.56
40059;SHT31;25763;49.972;8.568;2023-07-02T06:46:22;17.49;71.85
40059;SHT31;25763;49.972;8.568;2023-07-02T06:48:47;17.50;71.78
40059;SHT31;25763;49.972;8.568;2023-07-02T06:51:12;17.47;70.75
40059;SHT31;25763;49.972;8.568;2023-07-02T06:53:41;17.50;70.92
40059;SHT31;25763;49.972;8.568;2023-07-02T06:56:07;17.50;70.60
40059;SHT31;25763;49.972;8.568;2023-07-02T06:58:33;17.53;71.40
40059;SHT31;25763;49.972;8.568;2023-07-02T07:00:58;17.54;70.98
40059;SHT31;25763;49.972;8.568;2023-07-02T07:03:23;17.57;70.89
40059;SHT31;25763;49.972;8.568;2023-07-02T07:05:49;17.51;70.00
40059;SHT31;25763;49.972;8.568;2023-07-02T07:08:15;17.51;70.07
40059;SHT31;25763;49.972;8.568;2023-07-02T07:10:40;17.54;71.29
40059;SHT31;25763;49.972;8.568;2023-07-02T07:13:05;17.53;71.50
40059;SHT31;25763;49.972;8.568;2023-07-02T07:15:33;17.47;70.87
40059;SHT31;25763;49.972;8.568;2023-07-02T07:17:59;17.47;71.71
40059;SHT31;25763;49.972;8.568;2023-07-02T07:20:24;17.55;71.91
40059;SHT31;25763;49.972;8.568;2023-07-02T07:22:49;17.55;70.97
40059;SHT31;25763;49.972;8.568;2023-07-02T07:25:15;17.63;71.07
40059;SHT31;25763;49.972;8.568;2023-07-02T07:27:40;17.71;71.39
40059;SHT31;25763;49.972;8.568;2023-07-02T07:30:06;17.74;70.27
40059;SHT31;25763;49.972;8.568;2023-07-02T07:32:31;17.92;72.57
40059;SHT31;25763;49.972;8.568;2023-07-02T07:34:57;18.09;73.26
40059;SHT31;25763;49.972;8.568;2023-07-02T07:37:22;18.14;71.27
40059;SHT31;25763;49.972;8.568;2023-07-02T07:39:48;18.30;71.17
40059;SHT31;25763;49.972;8.568;2023-07-02T07:42:14;18.51;72.00
40059;SHT31;25763;49.972;8.568;2023-07-02T07:44:40;18.52;69.93
40059;SHT31;25763;49.972;8.568;2023-07-02T07:47:05;18.51;71.27
40059;SHT31;25763;49.972;8.568;2023-07-02T07:49:31;18.68;71.48
40059;SHT31;25763;49.972;8.568;2023-07-02T07:51:56;18.90;72.02
40059;SHT31;25763;49.972;8.568;2023-07-02T07:54:21;19.18;71.85
40059;SHT31;25763;49.972;8.568;2023-07-02T07:56:47;19.58;70.91
40059;SHT31;25763;49.972;8.568;2023-07-02T07:59:12;19.69;69.05
40059;SHT31;25763;49.972;8.568;2023-07-02T08:01:40;19.65;67.78
40059;SHT31;25763;49.972;8.568;2023-07-02T08:04:05;19.49;67.61
40059;SHT31;25763;49.972;8.568;2023-07-02T08:06:31;19.28;65.12
40059;SHT31;25763;49.972;8.568;2023-07-02T08:08:56;19.46;65.60
40059;SHT31;25763;49.972;8.568;2023-07-02T08:11:22;19.67;65.02
40059;SHT31;25763;49.972;8.568;2023-07-02T08:13:47;19.91;65.11
40059;SHT31;25763;49.972;8.568;2023-07-02T08:16:13;20.14;64.71
40059;SHT31;25763;49.972;8.568;2023-07-02T08:18:38;20.22;63.28
40059;SHT31;25763;49.972;8.568;2023-07-02T08:21:03;20.22;64.18
40059;SHT31;25763;49.972;8.568;2023-07-02T08:23:31;20.10;62.79
40059;SHT31;25763;49.972;8.568;2023-07-02T08:25:57;20.11;65.42
40059;SHT31;25763;49.972;8.568;2023-07-02T08:28:22;20.11;61.87
40059;SHT31;25763;49.972;8.568;2023-07-02T08:30:48;20.50;63.26
40059;SHT31;25763;49.972;8.568;2023-07-02T08:33:13;20.70;63.50
40059;SHT31;25763;49.972;8.568;2023-07-02T08:35:38;20.95;62.03
40059;SHT31;25763;49.972;8.568;2023-07-02T08:38:04;21.15;61.58
40059;SHT31;25763;49.972;8.568;2023-07-02T08:40:29;21.29;61.20
40059;SHT31;25763;49.972;8.568;2023-07-02T08:42:55;21.56;62.63
40059;SHT31;25763;49.972;8.568;2023-07-02T08:45:22;21.74;61.80
40059;SHT31;25763;49.972;8.568;2023-07-02T08:47:49;21.82;60.06
40059;SHT31;25763;49.972;8.568;2023-07-02T08:50:15;21.60;59.40
40059;SHT31;25763;49.972;8.568;2023-07-02T08:52:42;21.54;60.02
40059;SHT31;25763;49.972;8.568;2023-07-02T08:55:08;21.57;60.70
40059;SHT31;25763;49.972;8.568;2023-07-02T08:57:35;21.51;61.06
40059;SHT31;25763;49.972;8.568;2023-07-02T09:00:05;21.65;59.37
40059;SHT31;25763;49.972;8.568;2023-07-02T09:02:34;21.65;60.54
40059;SHT31;25763;49.972;8.568;2023-07-02T09:05:00;21.63;60.41
40059;SHT31;25763;49.972;8.568;2023-07-02T09:07:26;21.56;59.82
40059;SHT31;25763;49.972;8.568;2023-07-02T09:09:51;21.67;61.31
40059;SHT31;25763;49.972;8.568;2023-07-02T09:12:27;21.68;60.95
40059;SHT31;25763;49.972;8.568;2023-07-02T09:15:05;21.68;63.00
40059;SHT31;25763;49.972;8.568;2023-07-02T09:17:37;21.57;61.08
40059;SHT31;25763;49.972;8.568;2023-07-02T09:20:04;21.23;60.51
40059;SHT31;25763;49.972;8.568;2023-07-02T09:22:32;21.20;59.45
40059;SHT31;25763;49.972;8.568;2023-07-02T09:24:58;21.39;60.73
40059;SHT31;25763;49.972;8.568;2023-07-02T09:27:38;21.51;59.82
40059;SHT31;25763;49.972;8.568;2023-07-02T09:30:21;21.43;58.56
40059;SHT31;25763;49.972;8.568;2023-07-02T09:32:47;21.49;58.92
40059;SHT31;25763;49.972;8.568;2023-07-02T09:35:12;21.51;55.51
40059;SHT31;25763;49.972;8.568;2023-07-02T09:37:38;21.65;56.78
40059;SHT31;25763;49.972;8.568;2023-07-02T09:40:04;21.99;54.95
40059;SHT31;25763;49.972;8.568;2023-07-02T09:42:33;22.06;54.45
40059;SHT31;25763;49.972;8.568;2023-07-02T09:45:00;21.91;55.90
40059;SHT31;25763;49.972;8.568;2023-07-02T09:47:27;21.73;56.03
40059;SHT31;25763;49.972;8.568;2023-07-02T09:49:57;21.58;57.28
40059;SHT31;25763;49.972;8.568;2023-07-02T09:52:23;21.35;57.09
40059;SHT31;25763;49.972;8.568;2023-07-02T09:54:48;21.38;57.09
40059;SHT31;25763;49.972;8.568;2023-07-02T09:57:14;21.57;58.09
40059;SHT31;25763;49.972;8.568;2023-07-02T09:59:40;21.68;56.13
40059;SHT31;25763;49.972;8.568;2023-07-02T10:02:06;21.75;57.00
40059;SHT31;25763;49.972;8.568;2023-07-02T10:04:44;21.64;55.03
40059;SHT31;25763;49.972;8.568;2023-07-02T10:07:10;21.53;53.92
40059;SHT31;25763;49.972;8.568;2023-07-02T10:09:39;21.47;55.24
40059;SHT31;25763;49.972;8.568;2023-07-02T10:12:19;21.53;55.32
40059;SHT31;25763;49.972;8.568;2023-07-02T10:14:45;21.43;53.86
40059;SHT31;25763;49.972;8.568;2023-07-02T10:17:10;21.39;54.85
40059;SHT31;25763;49.972;8.568;2023-07-02T10:19:51;21.28;54.56
40059;SHT31;25763;49.972;8.568;2023-07-02T10:22:17;21.22;56.00
40059;SHT31;25763;49.972;8.568;2023-07-02T10:24:57;21.30;54.48
40059;SHT31;25763;49.972;8.568;2023-07-02T10:27:37;21.28;55.64
40059;SHT31;25763;49.972;8.568;2023-07-02T10:30:04;21.29;55.37
40059;SHT31;25763;49.972;8.568;2023-07-02T10:32:30;21.29;55.94
40059;SHT31;25763;49.972;8.568;2023-07-02T10:34:56;21.30;55.12
40059;SHT31;25763;49.972;8.568;2023-07-02T10:37:23;21.29;55.77
40059;SHT31;25763;49.972;8.568;2023-07-02T10:39:49;21.38;56.07
40059;SHT31;25763;49.972;8.568;2023-07-02T10:42:14;21.58;54.40
40059;SHT31;25763;49.972;8.568;2023-07-02T10:44:48;21.79;54.46
40059;SHT31;25763;49.972;8.568;2023-07-02T10:47:14;22.05;54.96
40059;SHT31;25763;49.972;8.568;2023-07-02T10:49:40;22.16;53.64
40059;SHT31;25763;49.972;8.568;2023-07-02T10:52:05;22.09;52.27
40059;SHT31;25763;49.972;8.568;2023-07-02T10:54:48;21.91;52.55
40059;SHT31;25763;49.972;8.568;2023-07-02T10:57:15;21.88;52.47
40059;SHT31;25763;49.972;8.568;2023-07-02T10:59:46;21.99;53.95
40059;SHT31;25763;49.972;8.568;2023-07-02T11:02:11;22.16;52.62
40059;SHT31;25763;49.972;8.568;2023-07-02T11:04:37;22.39;52.49
40059;SHT31;25763;49.972;8.568;2023-07-02T11:07:03;22.72;51.11
40059;SHT31;25763;49.972;8.568;2023-07-02T11:09:28;22.89;50.00
40059;SHT31;25763;49.972;8.568;2023-07-02T11:11:55;23.07;48.01
40059;SHT31;25763;49.972;8.568;2023-07-02T11:14:34;23.10;48.54
40059;SHT31;25763;49.972;8.568;2023-07-02T11:17:06;22.89;47.43
40059;SHT31;25763;49.972;8.568;2023-07-02T11:19:34;22.61;47.63
40059;SHT31;25763;49.972;8.568;2023-07-02T11:22:01;22.58;49.21
40059;SHT31;25763;49.972;8.568;2023-07-02T11:24:31;22.47;49.51
40059;SHT31;25763;49.972;8.568;2023-07-02T11:26:58;22.34;49.35
40059;SHT31;25763;49.972;8.568;2023-07-02T11:29:24;22.51;51.02
40059;SHT31;25763;49.972;8.568;2023-07-02T11:31:50;22.37;48.91
40059;SHT31;25763;49.972;8.568;2023-07-02T11:34:21;22.34;49.77
40059;SHT31;25763;49.972;8.568;2023-07-02T11:36:47;22.75;49.24
40059;SHT31;25763;49.972;8.568;2023-07-02T11:39:13;23.02;49.25
40059;SHT31;25763;49.972;8.568;2023-07-02T11:41:42;23.19;52.29
40059;SHT31;25763;49.972;8.568;2023-07-02T11:44:08;23.02;46.94
40059;SHT31;25763;49.972;8.568;2023-07-02T11:46:33;22.89;46.20
40059;SHT31;25763;49.972;8.568;2023-07-02T11:49:03;23.07;48.12
40059;SHT31;25763;49.972;8.568;2023-07-02T11:51:30;23.24;48.41
40059;SHT31;25763;49.972;8.568;2023-07-02T11:53:56;23.17;47.18
40059;SHT31;25763;49.972;8.568;2023-07-02T11:56:21;23.15;48.28
40059;SHT31;25763;49.972;8.568;2023-07-02T11:58:47;22.98;48.75
40059;SHT31;25763;49.972;8.568;2023-07-02T12:01:12;22.92;48.24
40059;SHT31;25763;49.972;8.568;2023-07-02T12:03:38;22.71;50.17
40059;SHT31;25763;49.972;8.568;2023-07-02T12:06:03;22.75;48.93
40059;SHT31;25763;49.972;8.568;2023-07-02T12:08:28;22.75;48.85
40059;SHT31;25763;49.972;8.568;2023-07-02T12:10:54;22.82;49.68
40059;SHT31;25763;49.972;8.568;2023-07-02T12:13:19;22.82;49.20
40059;SHT31;25763;49.972;8.568;2023-07-02T12:15:47;22.99;48.43
40059;SHT31;25763;49.972;8.568;2023-07-02T12:18:12;23.41;48.83
40059;SHT31;25763;49.972;8.568;2023-07-02T12:20:39;23.65;46.46
40059;SHT31;25763;49.972;8.568;2023-07-02T12:23:05;23.54;48.84
40059;SHT31;25763;49.972;8.568;2023-07-02T12:25:30;23.35;46.58
40059;SHT31;25763;49.972;8.568;2023-07-02T12:27:56;23.47;47.52
40059;SHT31;25763;49.972;8.568;2023-07-02T12:30:21;23.52;47.25
40059;SHT31;25763;49.972;8.568;2023-07-02T12:32:47;23.47;47.15
40059;SHT31;25763;49.972;8.568;2023-07-02T12:35:12;23.76;47.68
40059;SHT31;25763;49.972;8.568;2023-07-02T12:37:49;23.86;47.67
40059;SHT31;25763;49.972;8.568;2023-07-02T12:40:14;23.89;47.52
40059;SHT31;25763;49.972;8.568;2023-07-02T12:42:41;23.52;45.18
40059;SHT31;25763;49.972;8.568;2023-07-02T12:45:08;23.44;45.33
40059;SHT31;25763;49.972;8.568;2023-07-02T12:47:33;23.35;45.71
40059;SHT31;25763;49.972;8.568;2023-07-02T12:49:58;23.35;45.97
40059;SHT31;25763;49.972;8.568;2023-07-02T12:52:24;23.33;46.59
40059;SHT31;25763;49.972;8.568;2023-07-02T12:54:49;23.68;45.90
40059;SHT31;25763;49.972;8.568;2023-07-02T12:57:14;23.76;44.94
40059;SHT31;25763;49.972;8.568;2023-07-02T12:59:40;23.66;44.98
40059;SHT31;25763;49.972;8.568;2023-07-02T13:02:05;24.07;46.60
40059;SHT31;25763;49.972;8.568;2023-07-02T13:04:31;24.29;43.64
40059;SHT31;25763;49.972;8.568;2023-07-02T13:06:56;24.49;45.04
40059;SHT31;25763;49.972;8.568;2023-07-02T13:09:21;24.76;45.15
40059;SHT31;25763;49.972;8.568;2023-07-02T13:11:47;24.56;43.22
40059;SHT31;25763;49.972;8.568;2023-07-02T13:14:12;24.21;44.27
40059;SHT31;25763;49.972;8.568;2023-07-02T13:16:37;24.06;43.71
40059;SHT31;25763;49.972;8.568;2023-07-02T13:19:03;23.96;44.96
40059;SHT31;25763;49.972;8.568;2023-07-02T13:21:28;24.02;44.61
40059;SHT31;25763;49.972;8.568;2023-07-02T13:23:54;23.94;44.31
40059;SHT31;25763;49.972;8.568;2023-07-02T13:26:19;23.83;43.50
40059;SHT31;25763;49.972;8.568;2023-07-02T13:28:45;23.62;44.16
40059;SHT31;25763;49.972;8.568;2023-07-02T13:31:16;23.74;45.19
40059;SHT31;25763;49.972;8.568;2023-07-02T13:33:42;23.82;44.78
40059;SHT31;25763;49.972;8.568;2023-07-02T13:36:07;23.81;45.61
40059;SHT31;25763;49.972;8.568;2023-07-02T13:38:33;23.93;44.41
40059;SHT31;25763;49.972;8.568;2023-07-02T13:40:59;23.96;43.82
40059;SHT31;25763;49.972;8.568;2023-07-02T13:43:24;24.09;43.59
40059;SHT31;25763;49.972;8.568;2023-07-02T13:45:50;23.94;43.36
40059;SHT31;25763;49.972;8.568;2023-07-02T13:48:15;24.06;44.49
40059;SHT31;25763;49.972;8.568;2023-07-02T13:50:41;24.31;44.40
40059;SHT31;25763;49.972;8.568;2023-07-02T13:53:08;24.75;44.58
40059;SHT31;25763;49.972;8.568;2023-07-02T13:55:33;24.96;43.68
40059;SHT31;25763;49.972;8.568;2023-07-02T13:57:58;24.88;43.97
40059;SHT31;25763;49.972;8.568;2023-07-02T14:00:25;24.97;43.53
40059;SHT31;25763;49.972;8.568;2023-07-02T14:02:51;24.61;41.51
40059;SHT31;25763;49.972;8.568;2023-07-02T14:05:16;24.68;43.32
40059;SHT31;25763;49.972;8.568;2023-07-02T14:07:41;24.72;43.41
40059;SHT31;25763;49.972;8.568;2023-07-02T14:10:07;24.56;43.20
40059;SHT31;25763;49.972;8.568;2023-07-02T14:12:33;24.65;43.23
40059;SHT31;25763;49.972;8.568;2023-07-02T14:14:59;24.79;43.31
40059;SHT31;25763;49.972;8.568;2023-07-02T14:17:24;24.61;42.33
40059;SHT31;25763;49.972;8.568;2023-07-02T14:19:49;24.49;42.42
40059;SHT31;25763;49.972;8.568;2023-07-02T14:22:15;24.28;41.80
40059;SHT31;25763;49.972;8.568;2023-07-02T14:24:40;24.55;43.09
40059;SHT31;25763;49.972;8.568;2023-07-02T14:27:05;24.72;41.51
40059;SHT31;25763;49.972;8.568;2023-07-02T14:29:31;24.94;42.51
40059;SHT31;25763;49.972;8.568;2023-07-02T14:31:56;24.84;42.71
40059;SHT31;25763;49.972;8.568;2023-07-02T14:34:21;24.63;41.87
40059;SHT31;25763;49.972;8.568;2023-07-02T14:36:47;24.66;40.91
40059;SHT31;25763;49.972;8.568;2023-07-02T14:39:12;24.40;42.25
40059;SHT31;25763;49.972;8.568;2023-07-02T14:41:38;24.45;43.31
40059;SHT31;25763;49.972;8.568;2023-07-02T14:44:03;24.42;42.77
40059;SHT31;25763;49.972;8.568;2023-07-02T14:46:30;24.49;45.02
40059;SHT31;25763;49.972;8.568;2023-07-02T14:48:56;24.48;45.09
40059;SHT31;25763;49.972;8.568;2023-07-02T14:51:21;24.51;44.07
40059;SHT31;25763;49.972;8.568;2023-07-02T14:53:46;24.34;42.24
40059;SHT31;25763;49.972;8.568;2023-07-02T14:56:12;24.18;43.67
40059;SHT31;25763;49.972;8.568;2023-07-02T14:58:37;24.35;45.64
40059;SHT31;25763;49.972;8.568;2023-07-02T15:01:03;24.35;44.45
40059;SHT31;25763;49.972;8.568;2023-07-02T15:03:29;24.20;44.88
40059;SHT31;25763;49.972;8.568;2023-07-02T15:06:05;23.89;43.14
40059;SHT31;25763;49.972;8.568;2023-07-02T15:08:31;23.94;42.76
40059;SHT31;25763;49.972;8.568;2023-07-02T15:10:56;23.97;44.25
40059;SHT31;25763;49.972;8.568;2023-07-02T15:13:22;23.96;43.91
40059;SHT31;25763;49.972;8.568;2023-07-02T15:15:48;23.97;43.87
40059;SHT31;25763;49.972;8.568;2023-07-02T15:18:14;23.86;42.48
40059;SHT31;25763;49.972;8.568;2023-07-02T15:20:40;23.92;43.52
40059;SHT31;25763;49.972;8.568;2023-07-02T15:23:05;23.83;44.02
40059;SHT31;25763;49.972;8.568;2023-07-02T15:25:31;23.93;43.81